createdAt,value
2022-08-26T00:00:04.014Z,98927.56
2022-08-26T00:02:35.286Z,98921.57
2022-08-26T00:05:07.063Z,98923.87
2022-08-26T00:07:38.940Z,98920.98
2022-08-26T00:10:12.125Z,98916.39
2022-08-26T00:12:43.221Z,98922.10
2022-08-26T00:15:16.529Z,98921.34
2022-08-26T00:17:48.402Z,98923.36
2022-08-26T00:20:22.797Z,98920.67
2022-08-26T00:22:53.524Z,98918.10
2022-08-26T00:25:24.943Z,98919.45
2022-08-26T00:27:55.726Z,98919.38
2022-08-26T00:30:30.044Z,98917.98
2022-08-26T00:33:02.217Z,98917.06
2022-08-26T00:35:34.344Z,98917.34
2022-08-26T00:38:06.921Z,98914.45
2022-08-26T00:40:45.552Z,98916.07
2022-08-26T00:43:17.269Z,98915.06
2022-08-26T00:45:55.536Z,98917.09
2022-08-26T00:48:31.696Z,98915.89
2022-08-26T00:51:07.814Z,98918.91
2022-08-26T00:53:45.695Z,98916.01
2022-08-26T00:56:23.727Z,98914.86
2022-08-26T00:58:55.590Z,98913.79
2022-08-26T01:01:28.427Z,98912.20
2022-08-26T01:04:02.960Z,98909.38
2022-08-26T01:06:34.408Z,98908.60
2022-08-26T01:09:05.655Z,98905.95
2022-08-26T01:11:37.323Z,98910.09
2022-08-26T01:14:09.732Z,98913.54
2022-08-26T01:16:40.765Z,98915.41
2022-08-26T01:19:25.014Z,98914.45
2022-08-26T01:22:00.389Z,98910.91
2022-08-26T01:24:32.724Z,98912.09
2022-08-26T01:27:08.193Z,98911.86
2022-08-26T01:29:42.741Z,98910.45
2022-08-26T01:32:16.383Z,98912.04
2022-08-26T01:34:49.579Z,98909.52
2022-08-26T01:37:24.672Z,98909.41
2022-08-26T01:39:57.618Z,98906.04
2022-08-26T01:42:29.422Z,98906.64
2022-08-26T01:45:04.822Z,98909.29
2022-08-26T01:47:37.888Z,98906.20
2022-08-26T01:50:15.850Z,98906.12
2022-08-26T01:53:00.722Z,98906.02
2022-08-26T01:55:33.362Z,98904.65
2022-08-26T01:58:05.798Z,98904.17
2022-08-26T02:00:37.461Z,98904.68
2022-08-26T02:03:21.470Z,98903.33
2022-08-26T02:05:56.656Z,98904.15
2022-08-26T02:08:32.165Z,98904.33
2022-08-26T02:11:04.063Z,98903.27
2022-08-26T02:13:39.558Z,98899.61
2022-08-26T02:16:11.905Z,98893.64
2022-08-26T02:18:44.891Z,98899.80
2022-08-26T02:21:19.192Z,98895.12
2022-08-26T02:23:49.970Z,98893.27
2022-08-26T02:26:23.770Z,98892.83
2022-08-26T02:29:00.934Z,98895.87
2022-08-26T02:31:32.183Z,98896.99
2022-08-26T02:34:12.414Z,98899.88
2022-08-26T02:36:44.199Z,98901.20
2022-08-26T02:39:21.954Z,98895.57
2022-08-26T02:41:53.562Z,98898.13
2022-08-26T02:44:24.648Z,98894.64
2022-08-26T02:46:56.968Z,98898.36
2022-08-26T02:49:28.893Z,98893.09
2022-08-26T02:52:02.037Z,98888.52
2022-08-26T02:54:33.171Z,98888.42
2022-08-26T02:57:05.398Z,98885.33
2022-08-26T02:59:39.435Z,98886.02
2022-08-26T03:02:11.402Z,98887.21
2022-08-26T03:04:57.335Z,98887.26
2022-08-26T03:07:31.919Z,98888.78
2022-08-26T03:10:08.534Z,98884.15
2022-08-26T03:12:40.583Z,98885.50
2022-08-26T03:15:15.871Z,98885.85
2022-08-26T03:17:50.337Z,98882.89
2022-08-26T03:20:21.413Z,98879.08
2022-08-26T03:22:53.484Z,98881.48
2022-08-26T03:25:27.936Z,98883.24
2022-08-26T03:27:59.411Z,98879.28
2022-08-26T03:30:45.285Z,98878.70
2022-08-26T03:33:17.227Z,98875.71
2022-08-26T03:35:50.553Z,98881.61
2022-08-26T03:38:20.424Z,98882.16
2022-08-26T03:40:52.381Z,98875.10
2022-08-26T03:43:26.908Z,98878.10
2022-08-26T03:45:57.583Z,98873.82
2022-08-26T03:48:28.362Z,98872.37
2022-08-26T03:51:01.509Z,98874.21
2022-08-26T03:53:34.030Z,98876.92
2022-08-26T03:56:07.883Z,98873.66
2022-08-26T03:58:39.180Z,98878.85
2022-08-26T04:01:16.188Z,98879.66
2022-08-26T04:04:01.505Z,98878.04
2022-08-26T04:06:36.040Z,98879.59
2022-08-26T04:09:10.074Z,98879.85
2022-08-26T04:11:43.687Z,98878.67
2022-08-26T04:14:20.242Z,98881.88
2022-08-26T04:16:51.465Z,98884.04
2022-08-26T04:19:24.266Z,98885.00
2022-08-26T04:21:55.901Z,98886.27
2022-08-26T04:24:29.012Z,98880.39
2022-08-26T04:27:02.168Z,98879.58
2022-08-26T04:29:33.224Z,98880.95
2022-08-26T04:32:06.412Z,98882.89
2022-08-26T04:34:39.161Z,98882.06
2022-08-26T04:37:10.770Z,98885.13
2022-08-26T04:39:41.554Z,98882.38
2022-08-26T04:42:13.514Z,98880.55
2022-08-26T04:44:44.365Z,98876.69
2022-08-26T04:47:15.118Z,98877.20
2022-08-26T04:49:45.785Z,98878.36
2022-08-26T04:52:16.527Z,98878.21
2022-08-26T04:54:47.341Z,98876.86
2022-08-26T04:57:19.178Z,98876.63
2022-08-26T04:59:49.944Z,98872.52
2022-08-26T05:02:20.729Z,98874.58
2022-08-26T05:04:52.449Z,98869.97
2022-08-26T05:07:23.144Z,98870.45
2022-08-26T05:09:54.250Z,98874.73
2022-08-26T05:12:25.349Z,98879.31
2022-08-26T05:14:56.557Z,98881.91
2022-08-26T05:17:28.765Z,98885.37
2022-08-26T05:19:59.600Z,98883.40
2022-08-26T05:22:30.347Z,98886.91
2022-08-26T05:25:01.209Z,98887.02
2022-08-26T05:27:32.485Z,98893.60
2022-08-26T05:30:04.120Z,98888.30
2022-08-26T05:32:35.059Z,98889.94
2022-08-26T05:35:08.826Z,98888.73
2022-08-26T05:37:41.146Z,98890.36
2022-08-26T05:40:13.690Z,98887.36
2022-08-26T05:42:44.428Z,98891.04
2022-08-26T05:45:15.838Z,98889.23
2022-08-26T05:47:48.098Z,98888.56
2022-08-26T05:50:23.198Z,98885.56
2022-08-26T05:52:55.644Z,98881.17
2022-08-26T05:55:26.348Z,98879.15
2022-08-26T05:57:57.019Z,98879.98
2022-08-26T06:00:28.814Z,98881.11
2022-08-26T06:02:59.748Z,98883.96
2022-08-26T06:05:33.285Z,98880.16
2022-08-26T06:08:14.220Z,98880.09
2022-08-26T06:10:50.976Z,98879.35
2022-08-26T06:13:25.679Z,98881.23
2022-08-26T06:15:58.108Z,98877.31
2022-08-26T06:18:32.823Z,98878.30
2022-08-26T06:21:13.125Z,98874.38
2022-08-26T06:24:02.811Z,98873.67
2022-08-26T06:26:35.440Z,98874.23
2022-08-26T06:29:09.202Z,98874.88
2022-08-26T06:31:40.217Z,98877.31
2022-08-26T06:34:11.673Z,98877.16
2022-08-26T06:36:44.806Z,98880.20
2022-08-26T06:39:18.806Z,98878.57
2022-08-26T06:41:52.148Z,98875.47
2022-08-26T06:44:23.365Z,98874.98
2022-08-26T06:46:54.281Z,98871.97
2022-08-26T06:49:27.519Z,98871.27
2022-08-26T06:51:59.305Z,98869.00
2022-08-26T06:54:31.880Z,98870.05
2022-08-26T06:57:03.154Z,98872.19
2022-08-26T06:59:34.993Z,98867.95
2022-08-26T07:02:06.609Z,98869.43
2022-08-26T07:04:39.059Z,98865.29
2022-08-26T07:07:10.138Z,98869.45
2022-08-26T07:09:40.900Z,98869.49
2022-08-26T07:12:12.224Z,98873.29
2022-08-26T07:14:47.522Z,98870.84
2022-08-26T07:17:19.573Z,98873.38
2022-08-26T07:19:51.672Z,98871.96
2022-08-26T07:22:23.629Z,98873.85
2022-08-26T07:24:55.065Z,98876.05
2022-08-26T07:27:26.628Z,98873.34
2022-08-26T07:30:00.350Z,98871.38
2022-08-26T07:32:33.318Z,98873.27
2022-08-26T07:35:04.524Z,98869.61
2022-08-26T07:37:39.187Z,98866.08
2022-08-26T07:40:11.916Z,98864.10
2022-08-26T07:42:42.664Z,98864.77
2022-08-26T07:45:13.632Z,98866.14
2022-08-26T07:47:44.997Z,98868.48
2022-08-26T07:50:16.436Z,98864.30
2022-08-26T07:52:47.556Z,98861.62
2022-08-26T07:55:19.018Z,98859.81
2022-08-26T07:57:50.660Z,98863.70
2022-08-26T08:00:21.773Z,98859.23
2022-08-26T08:02:52.502Z,98856.86
2022-08-26T08:05:33.575Z,98855.30
2022-08-26T08:08:26.213Z,98857.02
2022-08-26T08:10:59.005Z,98856.17
2022-08-26T08:13:30.886Z,98854.07
2022-08-26T08:16:02.605Z,98855.65
2022-08-26T08:18:33.593Z,98854.36
2022-08-26T08:21:21.426Z,98855.48
2022-08-26T08:23:56.280Z,98851.22
2022-08-26T08:26:27.653Z,98846.76
2022-08-26T08:28:59.118Z,98841.89
2022-08-26T08:31:56.611Z,98841.38
2022-08-26T08:34:22.945Z,98839.75
2022-08-26T08:36:54.447Z,98836.92
2022-08-26T08:39:25.649Z,98834.70
2022-08-26T08:42:20.548Z,98834.27
2022-08-26T08:44:58.434Z,98834.91
2022-08-26T08:47:37.209Z,98832.54
2022-08-26T08:50:17.181Z,98833.77
2022-08-26T08:52:53.322Z,98827.29
2022-08-26T08:55:27.216Z,98825.38
2022-08-26T08:58:08.044Z,98821.38
2022-08-26T09:00:46.442Z,98824.23
2022-08-26T09:03:31.775Z,98819.16
2022-08-26T09:06:04.623Z,98823.38
2022-08-26T09:08:37.529Z,98821.23
2022-08-26T09:11:08.714Z,98821.86
2022-08-26T09:13:44.720Z,98821.48
2022-08-26T09:16:20.483Z,98819.50
2022-08-26T09:19:05.493Z,98816.65
2022-08-26T09:21:36.479Z,98814.05
2022-08-26T09:24:08.765Z,98810.58
2022-08-26T09:26:49.830Z,98807.07
2022-08-26T09:29:27.164Z,98804.87
2022-08-26T09:32:20.673Z,98804.16
2022-08-26T09:35:01.038Z,98797.13
2022-08-26T09:40:29.251Z,98792.41
2022-08-26T09:43:13.506Z,98790.13
2022-08-26T09:45:50.680Z,98786.70
2022-08-26T09:48:35.488Z,98785.34
2022-08-26T09:51:28.220Z,98779.98
2022-08-26T09:54:01.081Z,98774.94
2022-08-26T09:56:35.577Z,98772.73
2022-08-26T09:59:10.992Z,98765.89
2022-08-26T10:01:44.787Z,98765.02
2022-08-26T10:04:22.348Z,98760.80
2022-08-26T10:07:01.673Z,98760.98
2022-08-26T10:09:35.022Z,98758.32
2022-08-26T10:12:07.837Z,98752.70
2022-08-26T10:17:30.893Z,98747.71
2022-08-26T10:20:13.642Z,98747.63
2022-08-26T10:23:00.093Z,98743.25
2022-08-26T10:25:33.677Z,98743.08
2022-08-26T10:28:11.919Z,98741.92
2022-08-26T10:30:52.139Z,98740.30
2022-08-26T10:33:23.512Z,98736.14
2022-08-26T10:35:57.025Z,98733.05
2022-08-26T10:38:34.796Z,98732.25
2022-08-26T10:41:13.096Z,98727.20
2022-08-26T10:43:50.641Z,98730.25
2022-08-26T10:46:27.104Z,98727.94
2022-08-26T10:49:06.467Z,98726.89
2022-08-26T10:51:42.394Z,98724.17
2022-08-26T10:54:22.678Z,98722.30
2022-08-26T10:57:01.329Z,98720.20
2022-08-26T10:59:46.027Z,98714.90
2022-08-26T11:02:24.785Z,98715.21
2022-08-26T11:05:00.035Z,98710.34
2022-08-26T11:07:46.165Z,98708.71
2022-08-26T11:10:28.704Z,98708.15
2022-08-26T11:13:03.652Z,98708.08
2022-08-26T11:16:01.301Z,98704.93
2022-08-26T11:18:48.679Z,98702.83
2022-08-26T11:22:07.699Z,98694.20
2022-08-26T11:25:01.621Z,98687.36
2022-08-26T11:28:05.752Z,98680.79
2022-08-26T11:30:58.154Z,98682.43
2022-08-26T11:33:59.547Z,98679.61
2022-08-26T11:36:53.450Z,98675.80
2022-08-26T11:39:29.754Z,98671.91
2022-08-26T11:42:03.770Z,98666.19
2022-08-26T11:44:49.262Z,98663.02
2022-08-26T11:47:29.572Z,98660.67
2022-08-26T11:50:16.903Z,98653.45
2022-08-26T11:52:56.141Z,98650.14
2022-08-26T11:55:27.054Z,98650.17
2022-08-26T11:58:00.987Z,98649.02
2022-08-26T12:00:35.043Z,98644.29
2022-08-26T12:03:09.690Z,98644.63
2022-08-26T12:05:44.530Z,98645.04
2022-08-26T12:08:19.331Z,98645.27
2022-08-26T12:10:50.437Z,98648.75
2022-08-26T12:13:26.470Z,98640.44
2022-08-26T12:15:59.313Z,98638.98
2022-08-26T12:18:33.718Z,98631.01
2022-08-26T12:21:14.353Z,98625.63
2022-08-26T12:23:47.575Z,98619.08
2022-08-26T12:26:27.723Z,98617.88
2022-08-26T12:29:00.953Z,98612.48
2022-08-26T12:31:36.041Z,98611.33
2022-08-26T12:34:13.094Z,98607.50
2022-08-26T12:36:53.544Z,98598.35
2022-08-26T12:39:30.465Z,98598.04
2022-08-26T12:42:03.098Z,98598.44
2022-08-26T12:44:42.498Z,98592.72
2022-08-26T12:47:35.224Z,98591.17
2022-08-26T12:50:19.260Z,98586.05
2022-08-26T12:53:00.635Z,98590.23
2022-08-26T12:55:42.641Z,98582.66
2022-08-26T12:58:22.470Z,98583.73
2022-08-26T13:00:55.141Z,98578.77
2022-08-26T13:03:43.344Z,98578.67
2022-08-26T13:06:28.042Z,98578.86
2022-08-26T13:09:00.999Z,98576.91
2022-08-26T13:11:34.372Z,98574.46
2022-08-26T13:14:07.174Z,98565.17
2022-08-26T13:16:39.543Z,98562.52
2022-08-26T13:19:13.075Z,98554.27
2022-08-26T13:21:48.075Z,98550.88
2022-08-26T13:24:22.057Z,98545.25
2022-08-26T13:26:53.183Z,98538.55
2022-08-26T13:29:24.125Z,98538.55
2022-08-26T13:31:56.440Z,98533.77
2022-08-26T13:34:28.105Z,98538.74
2022-08-26T13:36:59.573Z,98537.17
2022-08-26T13:39:30.603Z,98527.61
2022-08-26T13:42:01.505Z,98528.70
2022-08-26T13:44:32.629Z,98528.85
2022-08-26T13:47:03.492Z,98524.52
2022-08-26T13:49:34.379Z,98522.33
2022-08-26T13:52:06.039Z,98524.54
2022-08-26T13:54:37.077Z,98522.42
2022-08-26T13:57:08.376Z,98520.15
2022-08-26T13:59:39.271Z,98517.71
2022-08-26T14:02:11.449Z,98516.09
2022-08-26T14:04:42.385Z,98515.67
2022-08-26T14:07:13.152Z,98520.41
2022-08-26T14:09:43.914Z,98517.48
2022-08-26T14:12:14.738Z,98515.86
2022-08-26T14:14:45.543Z,98506.14
2022-08-26T14:17:21.646Z,98505.90
2022-08-26T14:19:53.773Z,98504.18
2022-08-26T14:22:25.225Z,98502.04
2022-08-26T14:24:56.788Z,98500.66
2022-08-26T14:27:27.769Z,98499.46
2022-08-26T14:29:59.604Z,98496.59
2022-08-26T14:32:31.405Z,98491.20
2022-08-26T14:35:02.649Z,98489.59
2022-08-26T14:37:33.542Z,98488.85
2022-08-26T14:40:06.248Z,98488.92
2022-08-26T14:42:37.936Z,98490.65
2022-08-26T14:45:13.459Z,98493.02
2022-08-26T14:47:44.399Z,98489.34
2022-08-26T14:50:19.312Z,98487.89
2022-08-26T14:53:07.659Z,98483.96
2022-08-26T14:55:42.305Z,98485.49
2022-08-26T14:58:13.514Z,98482.66
2022-08-26T15:00:44.603Z,98483.64
2022-08-26T15:05:51.578Z,98481.92
2022-08-26T15:08:22.629Z,98478.83
2022-08-26T15:10:53.767Z,98473.16
2022-08-26T15:13:24.755Z,98466.20
2022-08-26T15:15:55.689Z,98456.52
2022-08-26T15:18:26.714Z,98450.67
2022-08-26T15:20:57.675Z,98448.73
2022-08-26T15:23:28.690Z,98447.08
2022-08-26T15:25:59.852Z,98449.20
2022-08-26T15:28:30.983Z,98451.42
2022-08-26T15:31:02.079Z,98453.37
2022-08-26T15:33:33.262Z,98461.79
2022-08-26T15:36:05.903Z,98466.05
2022-08-26T15:38:41.380Z,98472.27
2022-08-26T15:41:14.443Z,98474.71
2022-08-26T15:43:45.848Z,98474.42
2022-08-26T15:46:17.139Z,98473.11
2022-08-26T15:48:48.378Z,98465.98
2022-08-26T15:51:24.693Z,98468.33
2022-08-26T15:53:56.730Z,98469.40
2022-08-26T15:56:29.785Z,98466.28
2022-08-26T15:59:01.450Z,98458.03
2022-08-26T16:01:33.047Z,98452.29
2022-08-26T16:04:04.453Z,98453.44
2022-08-26T16:06:38.921Z,98452.29
2022-08-26T16:09:10.626Z,98456.31
2022-08-26T16:11:41.837Z,98460.41
2022-08-26T16:14:12.714Z,98461.64
2022-08-26T16:16:43.864Z,98455.69
2022-08-26T16:19:15.623Z,98449.56
2022-08-26T16:21:46.883Z,98452.91
2022-08-26T16:24:18.123Z,98450.13
2022-08-26T16:26:49.625Z,98437.71
2022-08-26T16:29:20.888Z,98432.30
2022-08-26T16:31:53.385Z,98438.21
2022-08-26T16:34:24.445Z,98465.50
2022-08-26T16:36:55.453Z,98493.12
2022-08-26T16:39:26.338Z,98490.70
2022-08-26T16:41:57.146Z,98481.14
2022-08-26T16:44:28.102Z,98481.48
2022-08-26T16:47:01.934Z,98483.84
2022-08-26T16:49:32.871Z,98483.03
2022-08-26T16:52:04.489Z,98502.97
2022-08-26T16:54:35.579Z,98491.05
2022-08-26T16:57:07.440Z,98495.63
2022-08-26T16:59:38.458Z,98503.66
2022-08-26T17:02:10.772Z,98509.39
2022-08-26T17:04:41.862Z,98507.40
2022-08-26T17:07:18.230Z,98503.90
2022-08-26T17:09:49.114Z,98497.78
2022-08-26T17:12:20.882Z,98490.92
2022-08-26T17:14:51.818Z,98488.31
2022-08-26T17:17:22.898Z,98487.98
2022-08-26T17:19:53.688Z,98486.66
2022-08-26T17:22:24.853Z,98488.04
2022-08-26T17:24:56.305Z,98492.11
2022-08-26T17:27:27.482Z,98489.69
2022-08-26T17:29:58.401Z,98485.29
2022-08-26T17:32:29.252Z,98482.50
2022-08-26T17:35:00.134Z,98477.44
2022-08-26T17:37:31.118Z,98482.41
2022-08-26T17:40:02.521Z,98483.40
2022-08-26T17:42:33.459Z,98486.59
2022-08-26T17:45:04.682Z,98489.20
2022-08-26T17:47:36.080Z,98489.69
2022-08-26T17:50:10.339Z,98497.70
2022-08-26T17:52:42.070Z,98507.11
2022-08-26T17:55:16.755Z,98540.63
2022-08-26T17:57:47.954Z,98576.52
2022-08-26T18:00:27.539Z,98580.77
2022-08-26T18:02:58.607Z,98584.75
2022-08-26T18:05:30.117Z,98608.75
2022-08-26T18:08:01.101Z,98610.95
2022-08-26T18:10:32.191Z,98586.29
2022-08-26T18:13:03.210Z,98575.40
2022-08-26T18:15:34.381Z,98596.87
2022-08-26T18:18:06.086Z,98608.15
2022-08-26T18:20:41.236Z,98599.95
2022-08-26T18:23:12.423Z,98596.98
2022-08-26T18:25:44.888Z,98593.48
2022-08-26T18:28:15.765Z,98598.02
2022-08-26T18:30:47.670Z,98597.98
2022-08-26T18:33:21.597Z,98597.14
2022-08-26T18:35:52.887Z,98599.89
2022-08-26T18:38:23.732Z,98599.62
2022-08-26T18:40:59.485Z,98594.30
2022-08-26T18:43:30.428Z,98599.73
2022-08-26T18:46:10.061Z,98601.25
2022-08-26T18:48:42.320Z,98602.80
2022-08-26T18:51:19.379Z,98602.21
2022-08-26T18:53:50.600Z,98602.79
2022-08-26T18:56:22.126Z,98607.92
2022-08-26T18:58:53.692Z,98614.70
2022-08-26T19:01:27.575Z,98617.78
2022-08-26T19:04:00.025Z,98623.09
2022-08-26T19:06:33.057Z,98622.36
2022-08-26T19:09:04.666Z,98635.00
2022-08-26T19:11:42.921Z,98642.48
2022-08-26T19:14:16.962Z,98649.11
2022-08-26T19:16:52.678Z,98652.27
2022-08-26T19:19:25.089Z,98669.14
2022-08-26T19:21:56.640Z,98678.17
2022-08-26T19:24:28.310Z,98683.94
2022-08-26T19:27:01.543Z,98678.98
2022-08-26T19:29:34.872Z,98668.61
2022-08-26T19:32:06.887Z,98662.26
2022-08-26T19:34:37.715Z,98675.30
2022-08-26T19:37:08.564Z,98677.90
2022-08-26T19:39:39.521Z,98674.71
2022-08-26T19:42:10.517Z,98673.76
2022-08-26T19:44:58.774Z,98676.71
2022-08-26T19:47:29.554Z,98681.45
2022-08-26T19:50:00.742Z,98682.51
2022-08-26T19:52:32.756Z,98678.48
2022-08-26T19:55:04.779Z,98669.48
2022-08-26T19:57:36.379Z,98668.95
2022-08-26T20:00:11.875Z,98671.21
2022-08-26T20:02:43.937Z,98666.40
2022-08-26T20:05:16.711Z,98668.13
2022-08-26T20:07:47.780Z,98664.69
2022-08-26T20:10:21.838Z,98659.05
2022-08-26T20:12:53.405Z,98657.94
2022-08-26T20:15:28.406Z,98659.52
2022-08-26T20:17:59.432Z,98659.75
2022-08-26T20:20:47.862Z,98663.10
2022-08-26T20:23:18.799Z,98656.66
2022-08-26T20:25:49.871Z,98659.46
2022-08-26T20:28:20.815Z,98658.42
2022-08-26T20:30:51.755Z,98654.80
2022-08-26T20:33:22.696Z,98656.05
2022-08-26T20:35:53.749Z,98653.11
2022-08-26T20:38:24.697Z,98657.04
2022-08-26T20:40:56.265Z,98656.20
2022-08-26T20:43:27.187Z,98653.92
2022-08-26T20:45:58.195Z,98654.41
2022-08-26T20:48:29.433Z,98653.91
2022-08-26T20:51:01.959Z,98653.44
2022-08-26T20:53:33.415Z,98650.16
2022-08-26T20:56:06.509Z,98654.50
2022-08-26T20:58:37.858Z,98648.04
2022-08-26T21:01:10.076Z,98650.25
2022-08-26T21:03:41.129Z,98650.50
2022-08-26T21:06:12.736Z,98648.36
2022-08-26T21:08:44.392Z,98646.23
2022-08-26T21:11:17.427Z,98644.92
2022-08-26T21:14:04.295Z,98633.96
2022-08-26T21:16:36.854Z,98628.08
2022-08-26T21:19:10.757Z,98619.82
2022-08-26T21:21:42.301Z,98613.75
2022-08-26T21:24:13.687Z,98609.84
2022-08-26T21:26:45.039Z,98609.59
2022-08-26T21:29:15.910Z,98611.30
2022-08-26T21:31:47.200Z,98605.99
2022-08-26T21:34:20.021Z,98596.91
2022-08-26T21:36:51.063Z,98592.73
2022-08-26T21:39:22.216Z,98590.36
2022-08-26T21:41:53.389Z,98588.65
2022-08-26T21:44:24.304Z,98586.69
2022-08-26T21:46:56.168Z,98579.72
2022-08-26T21:49:27.314Z,98578.33
2022-08-26T21:51:58.151Z,98580.13
2022-08-26T21:54:29.097Z,98580.05
2022-08-26T21:57:00.551Z,98579.38
2022-08-26T21:59:31.377Z,98576.76
2022-08-26T22:02:02.362Z,98574.96
2022-08-26T22:04:35.116Z,98574.16
2022-08-26T22:07:06.266Z,98572.02
2022-08-26T22:09:37.382Z,98570.47
2022-08-26T22:12:11.820Z,98567.61
2022-08-26T22:14:43.189Z,98570.48
2022-08-26T22:17:14.336Z,98576.19
2022-08-26T22:19:46.449Z,98582.65
2022-08-26T22:22:17.895Z,98581.73
2022-08-26T22:24:48.913Z,98585.48
2022-08-26T22:27:20.111Z,98581.48
2022-08-26T22:29:51.608Z,98582.39
2022-08-26T22:32:23.597Z,98583.78
2022-08-26T22:34:54.522Z,98581.57
2022-08-26T22:37:25.460Z,98578.46
2022-08-26T22:39:56.549Z,98579.77
2022-08-26T22:42:27.655Z,98578.95
2022-08-26T22:44:58.608Z,98582.14
2022-08-26T22:47:29.846Z,98581.65
2022-08-26T22:50:01.432Z,98579.42
2022-08-26T22:52:32.286Z,98581.16
2022-08-26T22:55:03.190Z,98584.82
2022-08-26T22:57:34.292Z,98584.43
2022-08-26T23:00:06.561Z,98585.73
2022-08-26T23:02:37.586Z,98582.61
2022-08-26T23:05:10.286Z,98580.16
2022-08-26T23:07:41.177Z,98582.46
2022-08-26T23:10:13.448Z,98582.63
2022-08-26T23:12:44.188Z,98587.70
2022-08-26T23:15:15.948Z,98588.75
2022-08-26T23:17:57.863Z,98587.45
2022-08-26T23:20:30.629Z,98584.92
2022-08-26T23:23:02.696Z,98585.58
2022-08-26T23:25:34.460Z,98588.35
2022-08-26T23:28:05.605Z,98588.61
2022-08-26T23:30:36.657Z,98591.45
2022-08-26T23:33:07.591Z,98591.39
2022-08-26T23:35:38.541Z,98591.54
2022-08-26T23:38:14.121Z,98597.17
2022-08-26T23:40:45.436Z,98592.16
2022-08-26T23:43:16.686Z,98594.36
2022-08-26T23:45:47.596Z,98590.60
2022-08-26T23:48:19.470Z,98591.17
2022-08-26T23:51:08.036Z,98588.45
2022-08-26T23:53:39.288Z,98588.05
2022-08-26T23:56:16.232Z,98587.73
2022-08-26T23:58:47.717Z,98593.14
